Time;durP1;ratioP1;P1;durP2;ratioP2;P2;SDS_P1;SDS_P2;PMS_P1;PMS_P2;Temp;Humidity;BMP_temperature;BMP_pressure;BME280_temperature;BME280_humidity;BME280_pressure;Samples;Min_cycle;Max_cycle;Signal;HPM_P1;HPM_P2
2022/04/04 00:01:00;;;;;;;23.98;16.85;;;-1.80;99.90;;;-3.42;93.92;97716.94;4987900;28;20726;-72
2022/04/04 00:03:26;;;;;;;27.13;17.40;;;-1.80;99.90;;;-3.46;94.06;97720.00;4988532;28;20490;-72
2022/04/04 00:05:52;;;;;;;25.38;17.52;;;-1.80;99.90;;;-3.53;94.57;97720.59;4988353;28;20399;-72
2022/04/04 00:08:18;;;;;;;23.15;16.23;;;-1.90;99.90;;;-3.55;94.65;97719.16;4988408;28;20453;-72
2022/04/04 00:10:44;;;;;;;26.07;17.27;;;-1.90;99.90;;;-3.56;94.57;97717.53;4987886;28;20439;-72
2022/04/04 00:13:11;;;;;;;22.75;16.42;;;-1.90;99.90;;;-3.59;94.91;97718.63;4988370;28;20406;-73
2022/04/04 00:15:37;;;;;;;23.17;17.05;;;-2.00;99.90;;;-3.63;94.75;97717.31;4988438;28;20414;-71
2022/04/04 00:18:07;;;;;;;25.80;17.20;;;-2.00;99.90;;;-3.64;94.99;97715.69;4988236;28;20410;-73
2022/04/04 00:20:33;;;;;;;23.27;16.65;;;-2.00;99.90;;;-3.65;94.60;97714.06;4987748;28;20422;-71
2022/04/04 00:22:58;;;;;;;23.83;15.90;;;-2.00;99.90;;;-3.70;95.20;97712.91;4988168;28;20414;-72
2022/04/04 00:25:24;;;;;;;24.27;15.50;;;-2.00;99.90;;;-3.70;95.66;97716.31;4988184;28;20406;-72
2022/04/04 00:27:51;;;;;;;23.23;16.30;;;-2.10;99.90;;;-3.71;94.92;97712.09;4988131;28;20451;-72
2022/04/04 00:30:18;;;;;;;26.23;17.60;;;-2.10;99.90;;;-3.64;95.38;97709.72;4987643;28;20410;-72
2022/04/04 00:32:44;;;;;;;24.27;17.67;;;-2.00;99.90;;;-3.63;95.13;97706.16;4988012;28;20922;-73
2022/04/04 00:35:10;;;;;;;24.73;14.88;;;-2.00;99.90;;;-3.64;94.41;97705.34;4988189;28;20410;-72
2022/04/04 00:37:37;;;;;;;25.90;14.88;;;-2.00;99.90;;;-3.61;94.15;97704.25;4988161;28;20752;-72
2022/04/04 00:40:04;;;;;;;24.52;17.48;;;-2.00;99.90;;;-3.65;93.82;97710.69;4986647;28;20417;-72
2022/04/04 00:42:30;;;;;;;23.50;14.52;;;-2.00;99.90;;;-3.69;93.92;97712.78;5002610;28;20424;-72
2022/04/04 00:44:56;;;;;;;22.90;14.88;;;-2.10;99.90;;;-3.67;94.40;97715.19;4988013;28;20406;-71
2022/04/04 00:47:23;;;;;;;21.98;16.17;;;-2.10;99.90;;;-3.69;93.56;97709.38;4987845;28;20427;-73
2022/04/04 00:49:49;;;;;;;22.50;14.95;;;-2.10;99.90;;;-3.68;93.39;97710.97;4987801;28;20469;-71
2022/04/04 00:52:15;;;;;;;23.75;15.95;;;-2.10;99.90;;;-3.67;93.34;97704.84;4987335;28;20410;-71
2022/04/04 00:54:41;;;;;;;21.52;14.75;;;-2.10;99.90;;;-3.70;93.52;97711.16;4987842;28;20414;-72
2022/04/04 00:57:08;;;;;;;22.40;15.55;;;-2.10;99.90;;;-3.67;93.32;97710.81;4987817;28;20479;-72
2022/04/04 00:59:36;;;;;;;21.03;15.07;;;-2.10;99.90;;;-3.69;93.68;97701.63;4987820;28;20399;-71
2022/04/04 01:02:02;;;;;;;20.33;14.98;;;-2.10;99.90;;;-3.74;93.73;97704.66;4987315;28;20402;-71
2022/04/04 01:04:29;;;;;;;21.80;14.88;;;-2.10;99.90;;;-3.76;93.54;97701.41;4990329;28;20820;-73
2022/04/04 01:06:55;;;;;;;19.48;14.57;;;-2.10;99.90;;;-3.77;94.19;97694.63;4991041;28;20418;-73
2022/04/04 01:09:21;;;;;;;18.42;13.88;;;-2.10;99.90;;;-3.79;93.84;97698.31;4991089;28;20414;-71
2022/04/04 01:12:09;;;;;;;22.73;14.37;;;-2.20;99.90;;;-3.78;93.06;97705.13;4990646;28;20417;-71
2022/04/04 01:14:36;;;;;;;19.95;14.00;;;-2.20;99.90;;;-3.76;93.02;97700.59;4990873;28;20767;-71
2022/04/04 01:17:03;;;;;;;21.27;14.35;;;-2.10;99.90;;;-3.76;92.33;97703.19;4990948;28;20741;-72
2022/04/04 01:19:31;;;;;;;22.33;14.55;;;-2.20;99.90;;;-3.74;92.17;97698.66;4990786;28;20406;-71
2022/04/04 01:21:57;;;;;;;20.45;13.63;;;-2.10;99.90;;;-3.76;92.25;97698.81;4990390;28;20803;-71
2022/04/04 01:24:24;;;;;;;16.05;12.88;;;-2.10;99.90;;;-3.75;91.75;97692.66;4992641;28;20406;-70
2022/04/04 01:26:53;;;;;;;19.40;13.07;;;-2.10;99.90;;;-3.78;92.61;97690.41;5003919;28;20967;-71
2022/04/04 01:29:21;;;;;;;19.33;12.95;;;-2.10;99.90;;;-3.74;92.47;97691.72;5002565;28;20468;-72
2022/04/04 01:31:47;;;;;;;19.85;12.80;;;-2.20;99.90;;;-3.73;92.59;97684.75;4991034;28;20423;-72
2022/04/04 01:34:13;;;;;;;17.48;13.02;;;-2.10;99.90;;;-3.67;93.31;97684.97;4990868;28;20484;-72
2022/04/04 01:36:40;;;;;;;22.65;13.82;;;-2.10;99.90;;;-3.71;93.22;97680.25;4990664;28;20407;-72
2022/04/04 01:39:06;;;;;;;17.08;12.95;;;-2.10;99.90;;;-3.65;92.80;97683.03;4990554;28;20448;-72
2022/04/04 01:41:34;;;;;;;19.30;11.98;;;-2.00;99.90;;;-3.67;91.84;97678.97;4990045;28;20410;-72
2022/04/04 01:44:00;;;;;;;17.20;12.25;;;-2.10;99.90;;;-3.68;91.01;97672.97;4990499;28;20494;-72
2022/04/04 01:46:26;;;;;;;16.80;12.40;;;-2.10;99.90;;;-3.74;92.85;97663.25;4990455;28;20415;-72
2022/04/04 01:48:55;;;;;;;18.35;12.38;;;-2.10;99.90;;;-3.75;92.48;97671.16;4990357;28;20411;-73
2022/04/04 01:51:22;;;;;;;18.33;12.90;;;-2.10;99.90;;;-3.74;91.45;97662.44;4989858;28;20426;-72
2022/04/04 01:53:48;;;;;;;15.63;11.77;;;-2.10;99.90;;;-3.82;92.23;97667.56;4990473;28;20402;-72
2022/04/04 01:56:14;;;;;;;17.38;12.15;;;-2.20;99.90;;;-3.82;92.22;97667.56;4990312;28;20406;-73
2022/04/04 01:58:42;;;;;;;16.98;12.15;;;-2.20;99.90;;;-3.83;91.54;97673.75;4990467;28;20944;-72
2022/04/04 02:01:13;;;;;;;17.35;12.10;;;-2.20;99.90;;;-3.84;91.62;97664.34;4989786;28;20410;-72
2022/04/04 02:03:40;;;;;;;17.40;11.52;;;-2.20;99.90;;;-3.86;91.90;97661.09;4990219;28;20439;-72
2022/04/04 02:06:06;;;;;;;15.68;11.80;;;-2.20;99.90;;;-3.88;92.88;97665.63;4990082;28;20931;-72
2022/04/04 02:08:32;;;;;;;16.73;12.73;;;-2.30;99.90;;;-3.92;92.63;97663.34;4990108;28;20544;-72
2022/04/04 02:10:59;;;;;;;17.00;12.25;;;-2.30;99.90;;;-3.89;92.12;97664.81;4989533;28;20768;-72
2022/04/04 02:13:25;;;;;;;14.83;11.13;;;-2.30;99.90;;;-3.88;91.98;97657.84;4989806;28;20399;-72
2022/04/04 02:15:55;;;;;;;15.07;12.07;;;-2.30;99.90;;;-3.88;91.99;97650.91;4989892;28;20820;-72
2022/04/04 02:18:21;;;;;;;15.55;11.80;;;-2.20;99.90;;;-3.90;92.46;97653.66;4989961;28;20449;-72
2022/04/04 02:20:47;;;;;;;17.02;10.98;;;-2.30;99.90;;;-3.91;91.60;97646.06;4989472;28;20435;-72
2022/04/04 02:23:17;;;;;;;17.02;11.65;;;-2.30;99.90;;;-3.92;91.14;97644.44;4989897;28;20411;-72
2022/04/04 02:25:44;;;;;;;13.77;10.43;;;-2.30;99.90;;;-3.95;91.61;97642.97;4989894;28;20472;-72
2022/04/04 02:28:10;;;;;;;13.60;10.60;;;-2.30;99.90;;;-3.97;92.42;97638.91;4989799;28;20864;-72
2022/04/04 02:30:36;;;;;;;13.63;11.20;;;-2.30;99.90;;;-4.02;92.20;97641.94;4989289;28;20868;-72
2022/04/04 02:33:03;;;;;;;14.48;10.88;;;-2.40;99.90;;;-4.04;92.51;97643.06;4989621;28;20407;-72
2022/04/04 02:35:29;;;;;;;12.63;10.57;;;-2.40;99.90;;;-4.09;92.85;97646.13;4989769;28;20411;-71
2022/04/04 02:37:55;;;;;;;13.90;11.05;;;-2.40;99.90;;;-4.08;92.80;97641.75;4989677;28;20398;-72
2022/04/04 02:40:21;;;;;;;14.65;10.63;;;-2.40;99.90;;;-4.12;92.96;97641.25;4989153;28;20403;-71
2022/04/04 02:42:47;;;;;;;13.97;10.33;;;-2.50;99.90;;;-4.14;92.77;97632.84;4989580;28;20577;-71
2022/04/04 02:45:14;;;;;;;15.90;10.63;;;-2.50;99.90;;;-4.11;91.83;97635.13;4989571;28;20403;-71
2022/04/04 02:47:41;;;;;;;16.63;10.87;;;-2.50;99.90;;;-4.11;90.20;97637.69;4989486;28;20441;-73
2022/04/04 02:50:10;;;;;;;14.10;10.00;;;-2.50;99.90;;;-4.12;90.21;97632.66;4988933;28;20406;-70
2022/04/04 02:52:37;;;;;;;14.45;10.38;;;-2.50;99.90;;;-4.13;90.00;97631.03;4989425;28;20422;-71
2022/04/04 02:57:51;;;;;;;14.52;10.00;;;-2.50;99.90;;;-4.16;91.40;97636.53;4989454;28;20430;-71
2022/04/04 03:00:20;;;;;;;13.45;9.88;;;-2.50;99.90;;;-4.15;91.01;97638.16;4987650;28;20772;-72
2022/04/04 03:02:47;;;;;;;15.15;10.32;;;-2.50;99.90;;;-4.18;90.24;97622.94;4989222;28;20415;-73
2022/04/04 03:05:14;;;;;;;12.00;8.90;;;-2.50;99.90;;;-4.23;91.74;97630.34;4989323;28;20929;-72
2022/04/04 03:07:41;;;;;;;12.00;9.05;;;-2.60;99.90;;;-4.24;92.35;97626.16;4989253;28;20491;-72
2022/04/04 03:10:09;;;;;;;13.37;9.60;;;-2.60;99.90;;;-4.26;92.01;97625.47;4988961;28;20414;-69
2022/04/04 03:12:41;;;;;;;12.65;9.15;;;-2.60;99.90;;;-4.21;91.33;97621.47;4989174;28;20470;-72
2022/04/04 03:15:09;;;;;;;12.50;9.20;;;-2.60;99.90;;;-4.21;92.08;97621.47;4989363;28;20406;-71
2022/04/04 03:17:34;;;;;;;11.52;9.50;;;-2.60;99.90;;;-4.22;92.26;97626.81;4989045;28;20415;-71
2022/04/04 03:20:00;;;;;;;16.60;8.95;;;-2.60;99.90;;;-4.25;93.22;97627.94;4988945;28;20503;-71
2022/04/04 03:22:28;;;;;;;12.38;9.35;;;-2.60;99.90;;;-4.28;92.87;97628.22;4988520;28;20407;-71
2022/04/04 03:24:53;;;;;;;10.80;9.07;;;-2.60;99.90;;;-4.32;92.61;97624.31;4988863;28;20433;-73
2022/04/04 03:27:20;;;;;;;12.27;8.77;;;-2.60;99.90;;;-4.36;92.14;97625.59;4988041;28;20931;-72
2022/04/04 03:29:46;;;;;;;14.45;10.05;;;-2.70;99.90;;;-4.34;91.61;97619.31;4988898;28;20497;-72
2022/04/04 03:32:12;;;;;;;13.02;8.98;;;-2.70;99.90;;;-4.34;91.08;97616.72;4988428;28;20498;-72
2022/04/04 03:34:38;;;;;;;12.38;9.38;;;-2.70;99.90;;;-4.34;91.28;97621.06;4988949;28;21072;-72
2022/04/04 03:37:06;;;;;;;12.20;8.87;;;-2.70;99.90;;;-4.33;90.70;97620.13;4988872;28;20409;-70
2022/04/04 03:39:33;;;;;;;12.38;9.55;;;-2.70;99.90;;;-4.32;90.92;97612.22;4988813;28;20411;-70
2022/04/04 03:41:59;;;;;;;11.48;9.02;;;-2.60;99.90;;;-4.36;91.10;97616.06;4988223;28;20780;-72
2022/04/04 03:44:25;;;;;;;10.18;8.55;;;-2.70;99.90;;;-4.29;89.75;97611.13;4988633;28;20411;-71
2022/04/04 03:46:51;;;;;;;12.57;8.93;;;-2.60;99.90;;;-4.29;89.62;97608.53;4988484;28;20525;-72
2022/04/04 03:49:17;;;;;;;10.18;8.40;;;-2.60;99.90;;;-4.30;89.77;97612.88;4987196;28;20446;-70
2022/04/04 03:51:43;;;;;;;11.87;9.20;;;-2.60;99.90;;;-4.31;88.73;97611.25;4984477;28;20563;-71
2022/04/04 03:54:09;;;;;;;12.20;8.90;;;-2.70;99.90;;;-4.30;89.69;97610.31;5010221;22;20428;-74
2022/04/04 03:56:36;;;;;;;10.73;8.32;;;-2.60;99.90;;;-4.30;90.08;97612.88;5052100;28;20491;-74
2022/04/04 03:59:02;;;;;;;12.63;9.40;;;-2.60;99.90;;;-4.30;91.03;97620.63;5058004;28;20934;-74
2022/04/04 04:01:29;;;;;;;13.07;9.40;;;-2.60;99.90;;;-4.36;91.28;97626.38;5053760;28;20411;-75
2022/04/04 04:03:55;;;;;;;11.85;8.75;;;-2.70;99.90;;;-4.33;90.35;97620.94;5055583;28;20407;-74
2022/04/04 04:06:21;;;;;;;13.02;9.15;;;-2.70;99.90;;;-4.31;90.15;97620.78;5056760;28;20981;-75
2022/04/04 04:08:47;;;;;;;14.27;9.40;;;-2.70;99.90;;;-4.38;90.83;97615.41;5055945;28;20895;-75
2022/04/04 04:11:16;;;;;;;12.75;9.05;;;-2.70;99.90;;;-4.41;90.94;97614.91;5064827;28;20761;-77
2022/04/04 04:13:46;;;;;;;10.80;8.60;;;-2.70;99.90;;;-4.42;91.00;97605.53;5058215;28;20419;-74
2022/04/04 04:16:15;;;;;;;13.25;8.98;;;-2.70;99.90;;;-4.47;90.42;97602.59;5053611;28;20494;-74
2022/04/04 04:18:41;;;;;;;12.57;7.60;;;-2.80;99.90;;;-4.42;89.33;97600.34;5056295;28;20452;-74
2022/04/04 04:21:09;;;;;;;11.00;8.85;;;-2.80;99.90;;;-4.43;89.44;97598.72;5053950;28;20582;-74
2022/04/04 04:23:37;;;;;;;11.35;8.32;;;-2.80;99.90;;;-4.46;89.43;97604.22;5065211;28;20407;-74
2022/04/04 04:26:04;;;;;;;13.05;8.27;;;-2.80;99.90;;;-4.47;90.43;97602.59;5061084;28;20932;-75
2022/04/04 04:28:30;;;;;;;11.30;8.32;;;-2.80;99.90;;;-4.50;89.98;97595.94;5057215;28;20439;-76
2022/04/04 04:30:58;;;;;;;11.43;8.87;;;-2.80;99.90;;;-4.51;91.14;97596.13;5067163;28;20400;-76
2022/04/04 04:33:24;;;;;;;11.27;8.40;;;-2.80;99.90;;;-4.49;91.17;97597.56;5062147;28;20404;-76
2022/04/04 04:35:50;;;;;;;11.30;8.98;;;-2.80;99.90;;;-4.50;91.73;97601.09;5082219;28;20979;-76
2022/04/04 04:38:16;;;;;;;13.20;9.67;;;-2.80;99.90;;;-4.51;91.23;97596.91;5057518;28;20415;-76
2022/04/04 04:40:42;;;;;;;11.90;8.82;;;-2.80;99.90;;;-4.48;91.39;97593.22;5066365;28;20393;-76
2022/04/04 04:43:08;;;;;;;12.65;8.52;;;-2.80;99.90;;;-4.53;91.47;97601.44;5053302;28;20421;-76
2022/04/04 04:45:34;;;;;;;11.50;9.02;;;-2.90;99.90;;;-4.53;91.66;97595.44;5054682;28;20390;-77
2022/04/04 04:48:02;;;;;;;12.73;8.93;;;-2.80;99.90;;;-4.54;90.91;97596.41;5070712;28;20401;-73
2022/04/04 04:50:29;;;;;;;12.93;9.25;;;-2.90;99.90;;;-4.52;90.74;97594.50;5061009;28;20871;-73
2022/04/04 04:52:56;;;;;;;13.60;9.35;;;-2.80;99.90;;;-4.55;89.90;97595.59;5062927;28;20404;-72
2022/04/04 04:55:24;;;;;;;11.20;9.02;;;-2.90;99.90;;;-4.51;90.80;97590.94;5068534;28;20403;-72
2022/04/04 04:57:52;;;;;;;12.27;9.90;;;-2.80;99.90;;;-4.52;90.89;97590.13;5054480;28;20421;-73
2022/04/04 05:00:22;;;;;;;15.93;10.45;;;-2.80;99.90;;;-4.49;90.96;97592.41;5049354;28;20455;-74
2022/04/04 05:03:24;;;;;;;15.52;10.98;;;-2.80;99.90;;;-4.49;90.61;97594.16;5049763;28;20405;-74
2022/04/04 05:05:36;;;;;;;15.60;10.57;;;-2.80;99.90;;;-4.44;88.90;97587.63;5070120;28;20412;-73
2022/04/04 05:08:02;;;;;;;15.20;10.70;;;-2.80;99.90;;;-4.41;87.92;97584.72;5057459;28;20445;-72
2022/04/04 05:10:29;;;;;;;13.63;10.10;;;-2.80;99.90;;;-4.38;89.78;97586.19;5065651;28;20836;-73
2022/04/04 05:12:56;;;;;;;13.85;10.07;;;-2.70;99.90;;;-4.38;89.48;97586.19;5059774;28;20409;-74
2022/04/04 05:15:23;;;;;;;13.93;10.17;;;-2.70;99.90;;;-4.34;88.24;97588.28;5059182;28;20401;-72
2022/04/04 05:17:49;;;;;;;15.53;10.77;;;-2.70;99.90;;;-4.28;89.96;97583.50;5059191;28;20419;-73
2022/04/04 05:20:15;;;;;;;16.33;10.63;;;-2.60;99.90;;;-4.28;88.55;97583.50;5052706;28;20541;-72
2022/04/04 05:22:42;;;;;;;15.02;10.50;;;-2.60;99.90;;;-4.21;87.83;97587.09;5055107;28;20771;-72
2022/04/04 05:25:09;;;;;;;17.73;10.90;;;-2.60;99.90;;;-4.18;86.18;97585.00;5056516;28;20492;-71
2022/04/04 05:27:36;;;;;;;15.60;10.70;;;-2.50;99.90;;;-4.20;85.54;97588.69;5052898;28;20397;-69
2022/04/04 05:30:05;;;;;;;13.13;10.40;;;-2.60;99.90;;;-4.12;87.18;97586.97;5069866;28;20746;-69
2022/04/04 05:32:32;;;;;;;14.27;10.13;;;-2.50;99.90;;;-4.05;86.79;97590.53;5060826;28;20405;-72
2022/04/04 05:34:58;;;;;;;14.40;10.48;;;-2.40;99.90;;;-3.99;87.46;97592.53;5060961;28;20420;-71
2022/04/04 05:37:25;;;;;;;15.65;10.40;;;-2.40;99.90;;;-3.99;85.99;97583.97;5052961;28;20414;-72
2022/04/04 05:39:52;;;;;;;13.32;10.48;;;-2.40;99.90;;;-3.93;86.48;97584.16;5053157;28;20401;-74
2022/04/04 05:42:18;;;;;;;15.82;11.02;;;-2.30;99.90;;;-3.85;85.89;97585.97;5052670;28;20409;-72
2022/04/04 05:44:44;;;;;;;14.87;10.23;;;-2.30;99.90;;;-3.81;86.88;97584.69;5056504;28;20403;-72
2022/04/04 05:47:11;;;;;;;14.65;10.75;;;-2.20;99.90;;;-3.74;86.25;97587.44;5065752;28;20426;-73
2022/04/04 05:49:37;;;;;;;14.13;10.52;;;-2.20;99.90;;;-3.69;85.10;97590.41;5070384;28;20469;-72
2022/04/04 05:52:04;;;;;;;13.23;10.00;;;-2.10;99.90;;;-3.65;84.44;97591.69;5072079;28;20877;-73
2022/04/04 05:54:31;;;;;;;14.57;10.32;;;-2.10;99.90;;;-3.62;84.41;97589.63;5070456;28;20560;-74
2022/04/04 05:56:58;;;;;;;13.90;10.13;;;-2.00;99.90;;;-3.52;84.90;97589.44;5072535;28;20402;-73
2022/04/04 05:59:25;;;;;;;13.45;10.70;;;-2.00;99.90;;;-3.44;86.06;97591.25;5059156;28;20413;-72
2022/04/04 06:01:51;;;;;;;15.45;10.82;;;-1.90;99.90;;;-3.40;86.76;97584.81;5052491;28;20409;-74
2022/04/04 06:04:16;;;;;;;13.70;10.52;;;-1.90;99.90;;;-3.36;84.82;97586.09;5052443;28;20407;-73
2022/04/04 06:06:43;;;;;;;13.93;10.70;;;-1.80;99.90;;;-3.28;86.70;97593.88;5052708;28;20405;-74
2022/04/04 06:09:09;;;;;;;16.20;10.85;;;-1.70;99.90;;;-3.19;84.52;97588.56;5067888;28;20495;-74
2022/04/04 06:11:35;;;;;;;14.23;10.23;;;-1.70;99.90;;;-3.12;84.80;97586.16;5051930;28;20895;-71
2022/04/04 06:14:02;;;;;;;12.15;9.93;;;-1.60;99.90;;;-3.09;83.92;97585.03;5052234;28;20402;-73
2022/04/04 06:16:28;;;;;;;13.35;10.02;;;-1.60;99.90;;;-2.99;86.00;97581.28;5059318;28;20403;-71
2022/04/04 06:18:54;;;;;;;13.70;9.70;;;-1.50;99.90;;;-2.99;85.80;97576.13;5062726;28;20426;-73
2022/04/04 06:21:20;;;;;;;14.20;10.20;;;-1.40;99.90;;;-2.91;85.63;97583.09;5062647;28;20492;-73
2022/04/04 06:23:46;;;;;;;13.77;9.87;;;-1.40;99.90;;;-2.87;84.36;97582.63;5057690;28;20488;-73
2022/04/04 06:26:13;;;;;;;14.55;10.52;;;-1.40;99.90;;;-2.80;84.79;97582.78;5052941;28;20467;-73
2022/04/04 06:28:39;;;;;;;17.37;9.43;;;-1.30;99.90;;;-2.75;85.12;97594.25;5059097;28;20432;-72
2022/04/04 06:31:06;;;;;;;14.38;9.40;;;-1.20;99.90;;;-2.71;85.20;97588.75;5069098;28;20395;-73
2022/04/04 06:33:32;;;;;;;13.30;9.48;;;-1.20;99.90;;;-2.66;84.83;97579.53;5067410;28;20491;-72
2022/04/04 06:35:58;;;;;;;12.15;9.48;;;-1.10;99.90;;;-2.58;85.60;97576.94;5058899;28;20699;-72
2022/04/04 06:38:24;;;;;;;16.30;10.23;;;-1.10;99.90;;;-2.50;86.85;97586.47;5049048;28;20419;-72
2022/04/04 06:40:51;;;;;;;12.43;9.43;;;-1.00;99.90;;;-2.43;85.36;97574.47;5051229;28;20497;-70
2022/04/04 06:43:19;;;;;;;14.93;9.88;;;-0.90;99.90;;;-2.38;84.99;97582.56;5050790;28;20398;-72
2022/04/04 06:45:45;;;;;;;13.32;9.45;;;-0.90;99.90;;;-2.31;85.22;97580.94;5052152;28;20425;-73
2022/04/04 06:48:13;;;;;;;13.68;9.57;;;-0.80;99.90;;;-2.24;84.69;97574.09;5057029;28;20395;-72
2022/04/04 06:50:40;;;;;;;12.50;9.40;;;-0.80;99.90;;;-2.15;85.19;97586.06;5061627;28;20463;-72
2022/04/04 06:53:06;;;;;;;12.63;9.65;;;-0.70;99.90;;;-2.09;85.37;97582.00;5050839;28;20397;-73
2022/04/04 06:55:32;;;;;;;15.07;9.77;;;-0.60;99.90;;;-2.05;84.04;97578.13;5048763;28;20464;-72
2022/04/04 06:57:58;;;;;;;13.27;9.98;;;-0.60;99.90;;;-1.93;85.01;97573.38;5049784;28;20424;-73
2022/04/04 07:00:24;;;;;;;10.88;8.98;;;-0.40;99.90;;;-1.88;85.78;97571.09;5047700;28;20445;-73
2022/04/04 07:02:50;;;;;;;11.33;9.27;;;-0.40;99.90;;;-1.80;86.48;97569.25;5061810;28;20415;-73
2022/04/04 07:05:17;;;;;;;13.97;10.03;;;-0.30;99.90;;;-1.70;84.87;97569.06;5051671;28;20406;-73
2022/04/04 07:07:43;;;;;;;13.17;9.93;;;-0.20;99.90;;;-1.63;85.03;97572.59;5051291;28;20394;-73
2022/04/04 07:10:11;;;;;;;12.27;9.07;;;-0.10;99.90;;;-1.55;83.23;97572.56;5053091;28;20413;-74
2022/04/04 07:12:40;;;;;;;14.40;9.93;;;-0.10;99.90;;;-1.48;83.26;97575.28;5050133;28;20398;-72
2022/04/04 07:15:10;;;;;;;11.82;9.18;;;0.00;99.90;;;-1.37;84.48;97574.91;5051443;28;20398;-76
2022/04/04 07:17:37;;;;;;;13.23;9.65;;;0.10;99.90;;;-1.27;82.24;97571.09;5059037;28;20413;-70
2022/04/04 07:20:04;;;;;;;12.40;9.40;;;0.20;99.90;;;-1.21;83.04;97567.00;5050894;28;20401;-69
2022/04/04 07:22:35;;;;;;;15.00;9.73;;;0.30;99.90;;;-1.08;83.61;97562.03;5050821;28;20421;-68
2022/04/04 07:25:02;;;;;;;13.65;9.15;;;0.30;99.90;;;-1.05;83.00;97568.69;5048382;28;20410;-68
2022/04/04 07:27:28;;;;;;;11.20;9.05;;;0.40;99.90;;;-1.03;83.12;97569.31;5049253;28;20409;-69
2022/04/04 07:29:54;;;;;;;13.13;9.88;;;0.40;99.90;;;-0.95;83.19;97559.66;5034166;28;20496;-70
2022/04/04 07:32:20;;;;;;;13.25;9.48;;;0.50;99.90;;;-0.93;83.49;97562.91;5045201;28;20741;-70
2022/04/04 07:34:48;;;;;;;14.40;10.15;;;0.50;99.90;;;-0.89;84.90;97560.75;5046813;28;20851;-70
2022/04/04 07:37:14;;;;;;;15.93;10.38;;;0.60;99.90;;;-0.82;85.09;97564.28;5051703;28;20558;-70
2022/04/04 07:39:41;;;;;;;13.80;9.32;;;0.60;99.90;;;-0.75;83.72;97567.00;5050572;28;20476;-69
2022/04/04 07:42:08;;;;;;;12.82;9.25;;;0.70;99.90;;;-0.64;83.89;97562.19;5050415;28;20413;-69
2022/04/04 07:44:34;;;;;;;14.45;10.05;;;0.80;99.90;;;-0.62;81.17;97564.63;5050728;28;20894;-68
2022/04/04 07:47:01;;;;;;;13.88;10.50;;;0.80;99.90;;;-0.50;85.61;97560.59;5050725;28;20397;-69
2022/04/04 07:49:27;;;;;;;17.13;10.10;;;0.90;99.90;;;-0.45;83.93;97563.47;5050591;28;20408;-68
2022/04/04 07:51:53;;;;;;;14.50;9.63;;;1.00;99.90;;;-0.39;84.40;97565.38;5050240;28;20402;-69
2022/04/04 07:54:19;;;;;;;16.17;9.90;;;1.10;99.90;;;-0.28;86.10;97564.91;5050481;28;20500;-68
2022/04/04 07:56:46;;;;;;;12.85;9.85;;;1.10;99.90;;;-0.26;86.67;97559.53;5050289;28;20412;-70
2022/04/04 07:59:12;;;;;;;12.43;9.98;;;1.10;99.90;;;-0.17;86.55;97558.47;5049843;28;20417;-69
2022/04/04 08:01:38;;;;;;;14.35;10.07;;;1.20;99.90;;;-0.08;87.15;97557.41;5048826;28;20397;-69
2022/04/04 08:04:04;;;;;;;17.57;11.10;;;1.30;99.90;;;-0.05;86.68;97562.25;5049665;28;20431;-69
2022/04/04 08:06:30;;;;;;;16.75;10.88;;;1.40;99.90;;;-0.04;83.76;97561.25;5049961;28;20394;-70
2022/04/04 08:08:56;;;;;;;15.85;9.25;;;1.40;99.90;;;0.00;83.69;97558.09;5046508;28;20826;-69
2022/04/04 08:11:22;;;;;;;14.05;10.18;;;1.40;99.90;;;0.02;86.01;97563.13;5047844;28;20405;-70
2022/04/04 08:13:50;;;;;;;12.85;9.38;;;1.40;99.90;;;-0.03;82.30;97557.66;5047990;28;20405;-69
2022/04/04 08:16:16;;;;;;;15.65;10.40;;;1.40;99.90;;;0.04;84.41;97560.34;5047698;28;20894;-69
2022/04/04 08:18:42;;;;;;;16.48;9.88;;;1.40;99.90;;;0.09;81.92;97553.63;5048120;28;20490;-68
2022/04/04 08:21:09;;;;;;;15.50;10.45;;;1.50;99.90;;;0.12;82.27;97549.84;5042010;28;20444;-69
2022/04/04 08:23:34;;;;;;;13.05;10.18;;;1.50;99.90;;;0.20;83.97;97544.56;5045350;28;20953;-68
2022/04/04 08:26:00;;;;;;;13.85;9.68;;;1.60;99.90;;;0.27;81.11;97537.63;5048752;28;20462;-69
2022/04/04 08:28:28;;;;;;;14.75;10.32;;;1.60;99.90;;;0.44;82.59;97530.41;5048568;28;20393;-68
2022/04/04 08:30:55;;;;;;;13.23;10.52;;;1.80;99.90;;;0.47;83.34;97530.03;5047950;28;20397;-69
2022/04/04 08:33:21;;;;;;;14.38;10.32;;;1.90;99.90;;;0.44;80.88;97531.22;5048233;28;20405;-67
2022/04/04 08:35:47;;;;;;;15.93;11.25;;;1.80;99.90;;;0.48;82.97;97526.44;5045726;28;20491;-68
2022/04/04 08:38:13;;;;;;;14.18;11.40;;;1.90;99.90;;;0.60;88.03;97523.16;5048263;28;20499;-67
2022/04/04 08:40:40;;;;;;;15.38;11.80;;;2.00;99.90;;;0.65;85.56;97533.06;5047937;28;20487;-68
2022/04/04 08:43:11;;;;;;;14.95;11.40;;;2.00;99.90;;;0.70;82.29;97526.28;5048495;28;20397;-68
2022/04/04 08:45:41;;;;;;;14.73;10.43;;;2.10;99.90;;;0.88;75.95;97528.47;5038516;28;20441;-68
2022/04/04 08:48:09;;;;;;;15.48;10.05;;;2.20;98.80;;;0.96;79.23;97527.53;5037784;28;20403;-68
2022/04/04 08:50:36;;;;;;;14.55;10.05;;;2.30;99.60;;;0.95;73.90;97521.53;5037360;28;20399;-68
2022/04/04 08:53:02;;;;;;;13.93;10.38;;;2.30;98.90;;;0.90;76.42;97520.47;5038293;28;20439;-67
2022/04/04 08:55:28;;;;;;;15.75;10.70;;;2.30;99.90;;;1.11;87.16;97517.84;5043100;28;20417;-68
2022/04/04 08:57:56;;;;;;;17.02;10.98;;;2.40;99.90;;;1.04;85.85;97512.59;5058989;28;20409;-70
2022/04/04 09:00:24;;;;;;;12.05;10.45;;;2.40;99.90;;;1.28;90.18;97513.19;5048069;28;20397;-72
2022/04/04 09:02:58;;;;;;;17.83;10.02;;;2.50;99.90;;;1.26;82.03;97507.34;5051273;28;20397;-71
2022/04/04 09:05:29;;;;;;;14.10;9.18;;;2.60;96.30;;;1.25;77.51;97509.16;5053235;28;20398;-72
2022/04/04 09:08:01;;;;;;;10.48;8.68;;;2.60;99.90;;;1.33;78.84;97503.78;5048539;28;20413;-73
2022/04/04 09:10:34;;;;;;;11.13;8.88;;;2.70;96.90;;;1.29;79.28;97505.16;5048346;28;20436;-74
2022/04/04 09:13:12;;;;;;;10.07;8.33;;;2.70;99.90;;;1.22;73.12;97498.28;5048379;28;20516;-73
2022/04/04 09:15:57;;;;;;;15.77;9.75;;;2.60;96.50;;;1.32;74.31;97491.75;5048721;28;20787;-75
2022/04/04 09:18:46;;;;;;;12.88;8.43;;;2.70;97.80;;;1.40;74.53;97489.00;5055654;28;20417;-81
2022/04/04 09:21:29;;;;;;;11.05;8.48;;;2.70;95.80;;;1.32;77.10;97478.72;5054615;28;20409;-77
2022/04/04 09:23:58;;;;;;;10.32;9.00;;;2.60;99.50;;;1.38;79.38;97477.13;5048761;28;20470;-76
2022/04/04 09:26:30;;;;;;;11.40;8.73;;;2.70;99.90;;;1.46;78.77;97474.38;5051596;28;20431;-79
2022/04/04 09:28:58;;;;;;;11.27;8.35;;;2.80;99.90;;;1.49;76.67;97469.59;5053398;28;20485;-74
2022/04/04 09:31:24;;;;;;;9.63;8.00;;;2.80;99.50;;;1.45;72.46;97470.97;5053119;28;20401;-77
2022/04/04 09:33:51;;;;;;;9.85;8.18;;;2.80;96.60;;;1.59;74.51;97471.03;5053199;28;20394;-77
2022/04/04 09:36:19;;;;;;;12.48;8.10;;;2.90;97.10;;;1.63;71.59;97464.44;5054041;28;20405;-82
2022/04/04 09:38:59;;;;;;;12.07;8.00;;;2.90;92.50;;;1.72;72.46;97465.91;5051522;28;20492;-88
2022/04/04 09:41:27;;;;;;;9.52;8.13;;;3.00;92.90;;;1.65;72.31;97452.03;5045900;28;20492;-89
2022/04/04 09:43:56;;;;;;;11.50;7.90;;;3.00;95.60;;;1.73;74.36;97447.44;5070862;28;20404;-89
2022/04/04 09:46:23;;;;;;;9.73;7.57;;;3.10;96.60;;;1.57;69.37;97445.16;5054999;28;20416;-84
2022/04/04 09:49:06;;;;;;;10.18;7.78;;;3.00;93.50;;;1.70;71.89;97444.41;5045876;28;20423;-83
2022/04/04 09:51:39;;;;;;;10.00;7.97;;;3.00;96.20;;;1.71;69.10;97446.03;5050776;28;20523;-84
2022/04/04 09:54:08;;;;;;;9.45;7.82;;;3.00;92.00;;;1.81;68.05;97442.06;5045768;28;20400;-79
2022/04/04 09:56:33;;;;;;;9.20;7.38;;;3.20;90.90;;;1.88;70.92;97432.44;5069270;22;20429;-76
2022/04/04 09:59:00;;;;;;;9.35;7.93;;;3.20;94.90;;;1.93;68.61;97429.25;5052289;28;20467;-75
2022/04/04 10:01:27;;;;;;;13.50;9.23;;;3.30;94.80;;;1.95;73.21;97416.84;5052289;28;20416;-75
2022/04/04 10:03:55;;;;;;;13.50;8.53;;;3.30;98.80;;;2.00;73.35;97424.06;5052578;28;20494;-75
2022/04/04 10:06:26;;;;;;;12.32;8.60;;;3.20;95.00;;;2.03;75.07;97419.25;5052316;28;20489;-75
2022/04/04 10:08:57;;;;;;;13.95;8.27;;;3.30;97.20;;;2.15;72.92;97414.28;5052230;28;20460;-76
2022/04/04 10:11:24;;;;;;;11.60;8.90;;;3.40;94.30;;;2.36;80.70;97411.50;5051968;28;20401;-76
2022/04/04 10:13:52;;;;;;;9.95;8.77;;;3.50;99.90;;;2.64;85.56;97406.09;5051615;28;20547;-75
2022/04/04 10:16:19;;;;;;;10.55;8.32;;;3.80;99.90;;;3.15;77.61;97411.53;5052029;28;20500;-76